createdAt,value
2019-03-13T00:00:53.203Z,2.80
2019-03-13T00:03:21.936Z,2.80
2019-03-13T00:05:50.643Z,2.80
2019-03-13T00:08:19.256Z,2.70
2019-03-13T00:10:47.857Z,2.80
2019-03-13T00:13:20.643Z,2.80
2019-03-13T00:15:50.488Z,2.80
2019-03-13T00:18:22.627Z,2.80
2019-03-13T00:21:04.399Z,2.70
2019-03-13T00:23:32.978Z,2.80
2019-03-13T00:26:01.819Z,2.80
2019-03-13T00:28:30.413Z,2.80
2019-03-13T00:30:58.997Z,2.80
2019-03-13T00:33:27.619Z,2.80
2019-03-13T00:35:58.270Z,2.80
2019-03-13T00:38:26.965Z,2.80
2019-03-13T00:40:55.577Z,2.80
2019-03-13T00:43:24.167Z,2.80
2019-03-13T00:45:52.863Z,2.70
2019-03-13T00:48:21.485Z,2.70
2019-03-13T00:50:50.056Z,2.70
2019-03-13T00:53:18.659Z,2.70
2019-03-13T00:55:47.262Z,2.60
2019-03-13T00:58:35.364Z,2.60
2019-03-13T01:01:11.726Z,2.60
2019-03-13T01:03:44.691Z,2.50
2019-03-13T01:06:19.345Z,2.50
2019-03-13T01:08:47.970Z,2.40
2019-03-13T01:11:18.274Z,2.30
2019-03-13T01:13:46.861Z,2.30
2019-03-13T01:16:16.659Z,2.30
2019-03-13T01:18:45.244Z,2.30
2019-03-13T01:21:13.827Z,2.30
2019-03-13T01:23:42.457Z,2.20
2019-03-13T01:26:11.552Z,2.20
2019-03-13T01:28:41.737Z,2.20
2019-03-13T01:31:20.652Z,2.20
2019-03-13T01:33:49.297Z,2.20
2019-03-13T01:36:18.019Z,2.20
2019-03-13T01:38:46.610Z,2.20
2019-03-13T01:41:15.229Z,2.20
2019-03-13T01:43:47.074Z,2.30
2019-03-13T01:46:15.471Z,2.30
2019-03-13T01:48:44.083Z,2.30
2019-03-13T01:51:12.712Z,2.30
2019-03-13T01:53:41.304Z,2.20
2019-03-13T01:56:09.893Z,2.20
2019-03-13T01:58:38.529Z,2.20
2019-03-13T02:01:08.822Z,2.20
2019-03-13T02:03:37.407Z,2.20
2019-03-13T02:06:06.171Z,2.30
2019-03-13T02:08:37.698Z,2.20
2019-03-13T02:11:06.291Z,2.20
2019-03-13T02:13:37.155Z,2.20
2019-03-13T02:16:05.736Z,2.20
2019-03-13T02:18:34.309Z,2.20
2019-03-13T02:21:02.962Z,2.20
2019-03-13T02:23:34.268Z,2.10
2019-03-13T02:26:02.926Z,2.10
2019-03-13T02:28:31.546Z,2.20
2019-03-13T02:31:00.709Z,2.20
2019-03-13T02:33:29.349Z,2.10
2019-03-13T02:35:57.981Z,2.10
2019-03-13T02:38:27.121Z,2.00
2019-03-13T02:40:57.926Z,2.10
2019-03-13T02:43:26.533Z,2.10
2019-03-13T02:45:55.123Z,2.10
2019-03-13T02:48:23.729Z,2.10
2019-03-13T02:50:52.308Z,2.10
2019-03-13T02:53:21.986Z,2.10
2019-03-13T02:55:50.578Z,2.00
2019-03-13T02:58:19.263Z,2.00
2019-03-13T03:00:49.545Z,2.00
2019-03-13T03:03:19.910Z,2.00
2019-03-13T03:05:48.452Z,2.00
2019-03-13T03:08:17.058Z,2.00
2019-03-13T03:10:47.083Z,2.00
2019-03-13T03:13:15.660Z,2.00
2019-03-13T03:15:44.318Z,1.90
2019-03-13T03:18:12.917Z,1.90
2019-03-13T03:20:41.486Z,1.90
2019-03-13T03:23:10.142Z,1.80
2019-03-13T03:25:38.782Z,1.80
2019-03-13T03:28:24.991Z,1.80
2019-03-13T03:30:54.569Z,1.80
2019-03-13T03:33:23.096Z,1.80
2019-03-13T03:35:51.628Z,1.80
2019-03-13T03:38:20.181Z,1.80
2019-03-13T03:40:48.738Z,1.80
2019-03-13T03:43:17.350Z,1.80
2019-03-13T03:45:45.927Z,1.80
2019-03-13T03:48:14.517Z,1.80
2019-03-13T03:50:43.084Z,1.70
2019-03-13T03:53:11.663Z,1.60
2019-03-13T03:55:40.332Z,1.60
2019-03-13T03:58:08.902Z,1.60
2019-03-13T04:00:37.446Z,1.60
2019-03-13T04:03:07.767Z,1.60
2019-03-13T04:05:38.814Z,1.60
2019-03-13T04:08:07.441Z,1.60
2019-03-13T04:10:36.127Z,1.60
2019-03-13T04:13:04.703Z,1.60
2019-03-13T04:15:33.373Z,1.70
2019-03-13T04:18:01.929Z,1.60
2019-03-13T04:20:30.489Z,1.70
2019-03-13T04:22:59.099Z,1.70
2019-03-13T04:25:29.853Z,1.70
2019-03-13T04:27:58.551Z,1.70
2019-03-13T04:30:27.386Z,1.70
2019-03-13T04:32:56.011Z,1.70
2019-03-13T04:35:24.644Z,1.80
2019-03-13T04:37:53.281Z,1.80
2019-03-13T04:40:21.914Z,1.80
2019-03-13T04:42:50.577Z,1.80
2019-03-13T04:45:19.141Z,1.90
2019-03-13T04:47:48.309Z,1.90
2019-03-13T04:50:16.938Z,1.90
2019-03-13T04:52:45.574Z,1.90
2019-03-13T04:55:15.423Z,1.90
2019-03-13T04:57:44.109Z,2.00
2019-03-13T05:00:16.944Z,2.00
2019-03-13T05:02:45.571Z,2.00
2019-03-13T05:05:32.300Z,2.10
2019-03-13T05:08:00.846Z,2.10
2019-03-13T05:10:29.412Z,2.20
2019-03-13T05:12:58.041Z,2.20
2019-03-13T05:15:26.660Z,2.20
2019-03-13T05:17:55.202Z,2.20
2019-03-13T05:20:23.803Z,2.30
2019-03-13T05:22:52.357Z,2.40
2019-03-13T05:25:20.905Z,2.40
2019-03-13T05:27:49.474Z,2.50
2019-03-13T05:30:18.190Z,2.50
2019-03-13T05:32:46.753Z,2.50
2019-03-13T05:35:15.307Z,2.60
2019-03-13T05:37:43.865Z,2.60
2019-03-13T05:40:13.259Z,2.70
2019-03-13T05:42:41.875Z,2.70
2019-03-13T05:45:10.426Z,2.70
2019-03-13T05:47:38.988Z,2.80
2019-03-13T05:50:10.106Z,2.80
2019-03-13T05:52:38.794Z,2.80
2019-03-13T05:55:07.484Z,2.90
2019-03-13T05:57:42.022Z,3.00
2019-03-13T06:00:12.960Z,3.00
2019-03-13T06:02:41.614Z,3.10
2019-03-13T06:05:10.568Z,3.30
2019-03-13T06:07:39.119Z,3.30
2019-03-13T06:10:13.004Z,3.30
2019-03-13T06:12:41.561Z,3.30
2019-03-13T06:15:18.478Z,3.30
2019-03-13T06:17:51.633Z,3.40
2019-03-13T06:20:20.193Z,3.50
2019-03-13T06:22:50.354Z,3.50
2019-03-13T06:25:18.927Z,3.60
2019-03-13T06:27:57.047Z,3.70
2019-03-13T06:30:25.738Z,3.70
2019-03-13T06:32:54.295Z,3.80
2019-03-13T06:35:24.215Z,3.80
2019-03-13T06:37:52.818Z,3.90
2019-03-13T06:40:22.120Z,3.90
2019-03-13T06:42:50.698Z,3.90
2019-03-13T06:45:19.528Z,3.90
2019-03-13T06:47:48.714Z,3.90
2019-03-13T06:50:23.871Z,4.00
2019-03-13T06:52:53.070Z,4.10
2019-03-13T06:55:21.635Z,4.20
2019-03-13T06:57:50.902Z,4.20
2019-03-13T07:00:25.506Z,4.20
2019-03-13T07:02:58.390Z,4.40
2019-03-13T07:05:35.548Z,4.50
2019-03-13T07:08:08.997Z,4.50
2019-03-13T07:10:44.105Z,4.50
2019-03-13T07:13:20.484Z,4.60
2019-03-13T07:15:52.638Z,4.70
2019-03-13T07:18:38.019Z,4.70
2019-03-13T07:21:08.579Z,4.80
2019-03-13T07:23:47.969Z,4.90
2019-03-13T07:26:18.438Z,4.90
2019-03-13T07:28:48.667Z,5.00
2019-03-13T07:31:20.455Z,5.00
2019-03-13T07:34:00.624Z,5.10
2019-03-13T07:36:49.727Z,5.20
2019-03-13T07:39:31.044Z,5.20
2019-03-13T07:42:09.994Z,5.30
2019-03-13T07:44:49.299Z,5.30
2019-03-13T07:47:19.500Z,5.30
2019-03-13T07:50:06.898Z,5.40
2019-03-13T07:52:37.113Z,5.40
2019-03-13T07:55:24.554Z,5.40
2019-03-13T07:58:03.313Z,5.40
2019-03-13T08:00:45.252Z,5.40
2019-03-13T08:03:20.950Z,5.40
2019-03-13T08:05:58.457Z,5.40
2019-03-13T08:08:28.661Z,5.40
2019-03-13T08:10:58.936Z,5.50
2019-03-13T08:13:29.217Z,5.50
2019-03-13T08:15:59.450Z,5.50
2019-03-13T08:18:44.639Z,5.50
2019-03-13T08:21:14.982Z,5.50
2019-03-13T08:23:54.138Z,5.50
2019-03-13T08:26:24.351Z,5.50
2019-03-13T08:29:10.727Z,5.50
2019-03-13T08:31:49.888Z,5.50
2019-03-13T08:34:29.064Z,5.60
2019-03-13T08:36:59.347Z,5.70
2019-03-13T08:39:29.642Z,5.70
2019-03-13T08:42:17.642Z,5.80
2019-03-13T08:44:56.904Z,5.80
2019-03-13T08:47:32.849Z,5.90
2019-03-13T08:50:03.622Z,5.80
2019-03-13T08:52:33.948Z,5.90
2019-03-13T08:55:07.018Z,5.80
2019-03-13T08:57:40.456Z,5.90
2019-03-13T09:00:27.499Z,5.90
2019-03-13T09:03:03.884Z,5.90
2019-03-13T09:05:46.232Z,6.00
2019-03-13T09:08:19.110Z,6.10
2019-03-13T09:11:04.281Z,6.10
2019-03-13T09:13:37.267Z,6.00
2019-03-13T09:16:07.626Z,6.00
2019-03-13T09:18:56.372Z,6.00
2019-03-13T09:21:41.589Z,6.00
2019-03-13T09:24:11.885Z,6.10
2019-03-13T09:26:51.083Z,6.10
2019-03-13T09:29:28.106Z,6.00
2019-03-13T09:32:01.027Z,6.10
2019-03-13T09:34:49.491Z,6.00
2019-03-13T09:37:35.755Z,6.00
2019-03-13T09:40:20.279Z,5.80
2019-03-13T09:43:06.374Z,5.80
2019-03-13T09:45:50.962Z,5.80
2019-03-13T09:48:32.716Z,5.90
2019-03-13T09:51:04.495Z,6.00
2019-03-13T09:53:50.462Z,6.10
2019-03-13T09:56:26.653Z,6.20
2019-03-13T09:59:02.762Z,6.30
2019-03-13T10:01:41.678Z,6.50
2019-03-13T10:04:30.166Z,6.60
2019-03-13T10:07:18.650Z,6.70
2019-03-13T10:10:07.227Z,6.80
2019-03-13T10:12:37.463Z,6.80
2019-03-13T10:15:10.943Z,6.80
2019-03-13T10:17:58.704Z,6.80
2019-03-13T10:20:29.020Z,6.70
2019-03-13T10:23:14.429Z,6.60
2019-03-13T10:25:45.477Z,6.50
2019-03-13T10:28:24.425Z,6.40
2019-03-13T10:31:01.792Z,6.40
2019-03-13T10:33:43.883Z,6.40
2019-03-13T10:36:19.896Z,6.30
2019-03-13T10:38:52.269Z,6.00
2019-03-13T10:41:31.487Z,5.80
2019-03-13T10:44:08.845Z,5.80
2019-03-13T10:46:44.701Z,5.70
2019-03-13T10:49:18.298Z,5.70
2019-03-13T10:51:57.289Z,5.70
2019-03-13T10:54:29.764Z,5.70
2019-03-13T10:57:03.875Z,5.70
2019-03-13T10:59:44.685Z,5.70
2019-03-13T11:02:25.487Z,5.70
2019-03-13T11:04:58.399Z,5.80
2019-03-13T11:07:44.600Z,5.90
2019-03-13T11:10:21.127Z,5.90
2019-03-13T11:12:52.547Z,5.90
2019-03-13T11:15:47.823Z,5.90
2019-03-13T11:18:21.201Z,5.90
2019-03-13T11:20:51.536Z,6.00
2019-03-13T11:23:31.011Z,6.00
2019-03-13T11:26:07.399Z,6.00
2019-03-13T11:28:59.893Z,6.00
2019-03-13T11:31:30.117Z,6.10
2019-03-13T11:34:03.131Z,6.00
2019-03-13T11:36:41.380Z,6.10
2019-03-13T11:39:12.170Z,6.10
2019-03-13T11:41:45.280Z,6.20
2019-03-13T11:44:32.307Z,6.20
2019-03-13T11:47:14.014Z,6.30
2019-03-13T11:49:46.913Z,6.30
2019-03-13T11:52:19.915Z,6.30
2019-03-13T11:54:53.977Z,6.30
2019-03-13T11:57:31.009Z,6.30
2019-03-13T12:00:15.743Z,6.30
2019-03-13T12:03:02.189Z,6.30
2019-03-13T12:05:32.527Z,6.30
2019-03-13T12:08:11.941Z,6.20
2019-03-13T12:10:45.106Z,6.20
2019-03-13T12:13:31.555Z,6.20
2019-03-13T12:16:01.761Z,6.20
2019-03-13T12:18:35.668Z,6.20
2019-03-13T12:21:08.849Z,6.20
2019-03-13T12:23:54.533Z,6.20
2019-03-13T12:26:28.959Z,6.20
2019-03-13T12:32:30.308Z,6.10
2019-03-13T12:35:01.263Z,6.20
2019-03-13T12:37:32.726Z,6.20
2019-03-13T12:40:22.185Z,6.20
2019-03-13T12:43:02.820Z,6.20
2019-03-13T12:45:35.921Z,6.20
2019-03-13T12:48:16.514Z,6.20
2019-03-13T12:50:43.423Z,6.30
2019-03-13T12:53:30.363Z,6.30
2019-03-13T12:56:18.070Z,6.30
2019-03-13T12:58:51.147Z,6.40
2019-03-13T13:01:24.260Z,6.40
2019-03-13T13:04:03.832Z,6.50
2019-03-13T13:06:34.204Z,6.60
2019-03-13T13:09:04.499Z,6.60
2019-03-13T13:11:51.844Z,6.70
2019-03-13T13:14:22.242Z,6.70
2019-03-13T13:16:56.237Z,6.80
2019-03-13T13:19:27.645Z,6.90
2019-03-13T13:21:57.833Z,7.00
2019-03-13T13:24:26.421Z,7.10
2019-03-13T13:26:55.147Z,7.20
2019-03-13T13:29:24.074Z,7.20
2019-03-13T13:31:55.226Z,7.20
2019-03-13T13:34:25.921Z,7.20
2019-03-13T13:36:54.491Z,7.00
2019-03-13T13:39:25.313Z,7.10
2019-03-13T13:41:54.950Z,7.20
2019-03-13T13:44:31.236Z,7.30
2019-03-13T13:47:02.113Z,7.30
2019-03-13T13:49:30.731Z,7.40
2019-03-13T13:52:00.863Z,7.50
2019-03-13T13:54:30.785Z,7.70
2019-03-13T13:56:59.380Z,7.80
2019-03-13T13:59:29.475Z,7.70
2019-03-13T14:01:58.071Z,7.80
2019-03-13T14:04:26.654Z,7.90
2019-03-13T14:06:55.273Z,8.00
2019-03-13T14:09:23.860Z,8.10
2019-03-13T14:11:52.445Z,8.10
2019-03-13T14:17:15.013Z,7.90
2019-03-13T14:19:43.677Z,7.70
2019-03-13T14:22:13.721Z,7.70
2019-03-13T14:24:42.359Z,7.80
2019-03-13T14:27:14.994Z,7.80
2019-03-13T14:29:41.472Z,7.80
2019-03-13T14:32:10.339Z,7.80
2019-03-13T14:34:38.995Z,7.90
2019-03-13T14:37:09.162Z,8.10
2019-03-13T14:39:37.795Z,8.20
2019-03-13T14:42:06.616Z,8.20
2019-03-13T14:44:35.682Z,8.30
2019-03-13T14:47:07.770Z,8.40
2019-03-13T14:49:36.455Z,8.50
2019-03-13T14:52:05.153Z,8.40
2019-03-13T14:54:35.271Z,8.30
2019-03-13T14:57:03.954Z,8.40
2019-03-13T14:59:32.589Z,8.40
2019-03-13T15:02:01.273Z,8.50
2019-03-13T15:04:31.553Z,8.50
2019-03-13T15:07:00.223Z,8.50
2019-03-13T15:09:28.833Z,8.50
2019-03-13T15:11:57.556Z,8.50
2019-03-13T15:14:26.866Z,8.40
2019-03-13T15:16:55.466Z,8.50
2019-03-13T15:19:24.068Z,8.50
2019-03-13T15:21:52.800Z,8.40
2019-03-13T15:24:21.419Z,8.40
2019-03-13T15:26:50.016Z,8.40
2019-03-13T15:29:18.582Z,8.40
2019-03-13T15:31:47.238Z,8.40
2019-03-13T15:34:15.873Z,8.40
2019-03-13T15:36:44.505Z,8.50
2019-03-13T15:39:13.258Z,8.50
2019-03-13T15:41:43.459Z,8.50
2019-03-13T15:44:11.938Z,8.50
2019-03-13T15:46:40.514Z,8.50
2019-03-13T15:49:09.649Z,8.50
2019-03-13T15:51:38.924Z,8.50
2019-03-13T15:54:07.680Z,8.50
2019-03-13T15:56:36.268Z,8.40
2019-03-13T15:59:04.854Z,8.40
2019-03-13T16:02:09.546Z,8.40
2019-03-13T16:04:38.130Z,8.40
2019-03-13T16:07:07.137Z,8.40
2019-03-13T16:09:35.722Z,8.30
2019-03-13T16:12:04.426Z,8.30
2019-03-13T16:14:36.413Z,8.30
2019-03-13T16:17:05.110Z,8.30
2019-03-13T16:19:33.760Z,8.30
2019-03-13T16:22:03.420Z,8.20
2019-03-13T16:24:32.037Z,8.20
2019-03-13T16:27:00.683Z,8.20
2019-03-13T16:29:30.929Z,8.10
2019-03-13T16:31:59.695Z,8.10
2019-03-13T16:34:29.350Z,8.10
2019-03-13T16:36:58.753Z,8.10
2019-03-13T16:39:27.887Z,8.00
2019-03-13T16:41:57.261Z,8.00
2019-03-13T16:44:26.362Z,8.00
2019-03-13T16:46:55.092Z,8.00
2019-03-13T16:49:23.742Z,7.90
2019-03-13T16:51:52.440Z,7.90
2019-03-13T16:54:21.010Z,7.90
2019-03-13T16:56:49.618Z,7.80
2019-03-13T16:59:19.897Z,7.80
2019-03-13T17:01:50.110Z,7.70
2019-03-13T17:04:18.854Z,7.70
2019-03-13T17:06:47.524Z,7.70
2019-03-13T17:09:16.196Z,7.60
2019-03-13T17:11:45.663Z,7.70
2019-03-13T17:14:14.413Z,7.60
2019-03-13T17:16:42.962Z,7.60
2019-03-13T17:19:11.602Z,7.60
2019-03-13T17:21:40.382Z,7.60
2019-03-13T17:24:09.124Z,7.60
2019-03-13T17:26:37.657Z,7.60
2019-03-13T17:29:06.434Z,7.60
2019-03-13T17:31:35.017Z,7.50
2019-03-13T17:34:03.695Z,7.50
2019-03-13T17:36:34.865Z,7.50
2019-03-13T17:39:07.162Z,7.50
2019-03-13T17:41:35.736Z,7.50
2019-03-13T17:44:04.368Z,7.50
2019-03-13T17:46:33.008Z,7.50
2019-03-13T17:49:01.573Z,7.50
2019-03-13T17:51:30.714Z,7.60
2019-03-13T17:53:59.320Z,7.60
2019-03-13T17:56:27.931Z,7.60
2019-03-13T17:58:56.590Z,7.60
2019-03-13T18:01:25.632Z,7.50
2019-03-13T18:03:54.215Z,7.50
2019-03-13T18:06:22.847Z,7.50
2019-03-13T18:08:51.927Z,7.40
2019-03-13T18:11:20.611Z,7.40
2019-03-13T18:13:49.243Z,7.40
2019-03-13T18:16:17.823Z,7.40
2019-03-13T18:18:47.501Z,7.40
2019-03-13T18:21:20.622Z,7.30
2019-03-13T18:23:49.253Z,7.30
2019-03-13T18:26:17.900Z,7.30
2019-03-13T18:28:46.589Z,7.30
2019-03-13T18:31:16.806Z,7.20
2019-03-13T18:33:45.378Z,7.10
2019-03-13T18:36:15.610Z,7.10
2019-03-13T18:38:45.884Z,7.10
2019-03-13T18:41:15.207Z,7.10
2019-03-13T18:43:46.475Z,7.10
2019-03-13T18:46:15.152Z,7.00
2019-03-13T18:48:45.371Z,7.00
2019-03-13T18:51:13.999Z,7.00
2019-03-13T18:53:42.635Z,7.00
2019-03-13T18:56:11.343Z,7.00
2019-03-13T18:58:41.079Z,7.00
2019-03-13T19:01:09.749Z,6.90
2019-03-13T19:03:38.411Z,6.90
2019-03-13T19:06:07.050Z,6.90
2019-03-13T19:08:35.687Z,6.90
2019-03-13T19:11:04.407Z,6.90
2019-03-13T19:13:33.066Z,6.90
2019-03-13T19:16:02.115Z,6.90
2019-03-13T19:18:35.427Z,6.90
2019-03-13T19:21:04.579Z,6.90
2019-03-13T19:23:34.763Z,6.90
2019-03-13T19:26:03.427Z,6.90
2019-03-13T19:28:35.283Z,6.80
2019-03-13T19:31:04.097Z,6.80
2019-03-13T19:33:32.663Z,6.80
2019-03-13T19:36:01.263Z,6.70
2019-03-13T19:38:29.841Z,6.70
2019-03-13T19:40:58.489Z,6.60
2019-03-13T19:43:28.761Z,6.60
2019-03-13T19:45:57.311Z,6.50
2019-03-13T19:48:27.566Z,6.50
2019-03-13T19:50:56.806Z,6.50
2019-03-13T19:53:25.468Z,6.60
2019-03-13T19:55:54.139Z,6.60
2019-03-13T19:58:25.323Z,6.60
2019-03-13T20:00:53.961Z,6.70
2019-03-13T20:03:23.134Z,6.70
2019-03-13T20:05:51.710Z,6.70
2019-03-13T20:08:20.371Z,6.70
2019-03-13T20:10:57.828Z,6.70
2019-03-13T20:13:28.250Z,6.60
2019-03-13T20:19:36.789Z,6.70
2019-03-13T20:22:06.008Z,6.60
2019-03-13T20:24:34.580Z,6.60
2019-03-13T20:27:04.581Z,6.60
2019-03-13T20:29:33.307Z,6.60
2019-03-13T20:35:36.896Z,6.50
2019-03-13T20:38:05.685Z,6.50
2019-03-13T20:40:34.392Z,6.50
2019-03-13T20:43:03.176Z,6.40
2019-03-13T20:45:32.041Z,6.40
2019-03-13T20:48:01.103Z,6.40
2019-03-13T20:50:36.615Z,6.40
2019-03-13T20:53:00.992Z,6.40
2019-03-13T20:55:30.717Z,6.40
2019-03-13T20:57:59.312Z,6.40
2019-03-13T21:00:29.559Z,6.40
2019-03-13T21:02:59.820Z,6.30
2019-03-13T21:05:29.256Z,6.30
2019-03-13T21:07:58.125Z,6.30
2019-03-13T21:10:26.794Z,6.20
2019-03-13T21:12:55.492Z,6.30
2019-03-13T21:15:28.066Z,6.30
2019-03-13T21:17:57.625Z,6.20
2019-03-13T21:20:26.379Z,6.20
2019-03-13T21:22:58.967Z,6.20
2019-03-13T21:25:29.596Z,6.10
2019-03-13T21:27:58.244Z,6.10
2019-03-13T21:30:30.123Z,6.10
2019-03-13T21:33:00.351Z,6.00
2019-03-13T21:35:29.008Z,6.00
2019-03-13T21:37:57.698Z,6.00
2019-03-13T21:40:32.125Z,6.00
2019-03-13T21:42:59.878Z,6.00
2019-03-13T21:45:40.359Z,5.90
2019-03-13T21:48:01.606Z,5.90
2019-03-13T21:50:33.412Z,5.90
2019-03-13T21:53:02.156Z,5.90
2019-03-13T21:55:30.914Z,5.80
2019-03-13T21:58:00.667Z,5.80
2019-03-13T22:00:29.366Z,5.80
2019-03-13T22:02:58.013Z,5.80
2019-03-13T22:05:27.530Z,5.80
2019-03-13T22:07:56.463Z,5.80
2019-03-13T22:10:26.618Z,5.70
2019-03-13T22:12:55.202Z,5.70
2019-03-13T22:15:24.223Z,5.70
2019-03-13T22:17:53.795Z,5.70
2019-03-13T22:20:22.418Z,5.70
2019-03-13T22:22:51.004Z,5.60
2019-03-13T22:25:20.259Z,5.60
2019-03-13T22:27:49.058Z,5.60
2019-03-13T22:30:22.549Z,5.50
2019-03-13T22:32:51.539Z,5.50
2019-03-13T22:35:20.250Z,5.40
2019-03-13T22:37:48.985Z,5.40
2019-03-13T22:40:18.490Z,5.40
2019-03-13T22:42:47.207Z,5.30
2019-03-13T22:45:17.779Z,5.30
2019-03-13T22:47:48.852Z,5.30
2019-03-13T22:50:21.814Z,5.30
2019-03-13T22:52:50.528Z,5.30
2019-03-13T22:55:19.176Z,5.30
2019-03-13T22:57:47.969Z,5.20
2019-03-13T23:00:27.335Z,5.20
2019-03-13T23:02:55.976Z,5.20
2019-03-13T23:05:24.746Z,5.20
2019-03-13T23:07:53.467Z,5.20
2019-03-13T23:10:30.903Z,5.20
2019-03-13T23:12:59.628Z,5.20
2019-03-13T23:15:28.430Z,5.20
2019-03-13T23:17:57.114Z,5.20
2019-03-13T23:20:25.792Z,5.20
2019-03-13T23:22:54.350Z,5.10
2019-03-13T23:25:22.908Z,5.00
2019-03-13T23:27:51.602Z,5.10
2019-03-13T23:30:20.192Z,5.00
2019-03-13T23:33:07.008Z,5.00
2019-03-13T23:35:35.549Z,5.00
2019-03-13T23:38:04.578Z,5.10
2019-03-13T23:40:34.092Z,5.00
2019-03-13T23:43:02.644Z,5.00
2019-03-13T23:45:31.207Z,5.00
2019-03-13T23:47:59.877Z,5.00
2019-03-13T23:50:28.511Z,5.00
2019-03-13T23:52:57.091Z,5.00
2019-03-13T23:55:25.690Z,5.00
2019-03-13T23:57:54.247Z,5.00
